Bassetts, California
Current Conditions -  °F | °C
As of 8:52 PM on Thursday 30 Oct 2014 (Local Time) from KBLU Reporting Station
Clear Clear  
Wind Chill: 52°   Ceiling: Unl
Heat Index: 52°   Visibility: 10mi
Dew Point: 34°   Wind: 3mph
Humidity: 50%   Direction: 120°ESE
Pressure: 30.04"   Gusts: NA
Location:  39.5538°N, 120.638°W
Report Text: KBLU 310352Z AUTO 12003KT 10SM CLR 11/01 A3004 RMK AO2 SLP117 T01110011
Loading
Personal Weather Stations






























Interactive Weather Map
Tropical Storm Tracking
New forecast layout! Learn more

10-Day Weather Forecast

Advertisements
Track Severe Weather on mobile